Time;durP1;ratioP1;P1;durP2;ratioP2;P2;SDS_P1;SDS_P2;PMS_P1;PMS_P2;Temp;Humidity;BMP_temperature;BMP_pressure;BME280_temperature;BME280_humidity;BME280_pressure;Samples;Min_cycle;Max_cycle;Signal;HPM_P1;HPM_P2
2022/01/01 00:02:27;;;;;;;191.52;64.20;;;10.00;99.90;;;;;;4898342;29;20032;-71
2022/01/01 00:04:54;;;;;;;147.75;50.42;;;10.00;99.90;;;;;;4898764;29;20025;-71
2022/01/01 00:07:21;;;;;;;143.73;46.03;;;10.00;99.90;;;;;;4917449;29;20044;-71
2022/01/01 00:09:47;;;;;;;144.40;51.35;;;10.00;99.90;;;;;;4917145;29;20032;-71
2022/01/01 00:12:14;;;;;;;128.32;42.58;;;9.90;99.90;;;;;;4899902;29;20344;-70
2022/01/01 00:14:43;;;;;;;80.47;27.23;;;10.00;99.90;;;;;;4917199;29;20032;-70
2022/01/01 00:17:10;;;;;;;59.83;22.88;;;9.90;99.90;;;;;;4917132;29;20034;-70
2022/01/01 00:19:36;;;;;;;68.05;24.52;;;9.90;99.90;;;;;;4918335;29;20111;-70
2022/01/01 00:22:03;;;;;;;56.92;22.42;;;9.90;99.90;;;;;;4920977;29;20458;-70
2022/01/01 00:24:30;;;;;;;54.28;20.48;;;9.90;99.90;;;;;;4921273;29;20036;-70
2022/01/01 00:26:57;;;;;;;53.35;22.27;;;9.90;99.90;;;;;;4921238;29;20084;-71
2022/01/01 00:29:24;;;;;;;76.38;26.27;;;9.80;99.90;;;;;;4904745;29;20036;-70
2022/01/01 00:31:53;;;;;;;86.47;25.65;;;9.80;99.90;;;;;;4903892;29;20044;-70
2022/01/01 00:34:20;;;;;;;76.65;25.83;;;9.80;99.90;;;;;;4920783;29;20036;-70
2022/01/01 00:36:47;;;;;;;80.75;30.48;;;9.70;99.90;;;;;;4920833;29;20034;-70
2022/01/01 00:39:13;;;;;;;96.05;31.13;;;9.70;99.90;;;;;;4920500;29;20036;-71
2022/01/01 00:41:39;;;;;;;78.65;25.42;;;9.70;99.90;;;;;;4920760;29;20031;-70
2022/01/01 00:44:06;;;;;;;70.57;23.98;;;9.60;99.90;;;;;;4920968;29;20032;-70
2022/01/01 00:46:32;;;;;;;76.25;23.70;;;9.60;99.90;;;;;;4920926;29;20039;-69
2022/01/01 00:48:58;;;;;;;74.20;24.38;;;9.60;99.90;;;;;;4921241;29;20052;-70
2022/01/01 00:51:25;;;;;;;67.25;21.35;;;9.50;99.90;;;;;;4920517;29;20034;-70
2022/01/01 00:53:51;;;;;;;74.43;24.23;;;9.50;99.90;;;;;;4920527;29;20508;-70
2022/01/01 00:56:18;;;;;;;62.30;20.33;;;9.50;99.90;;;;;;4920573;29;20036;-70
2022/01/01 00:58:44;;;;;;;62.28;21.10;;;9.50;99.90;;;;;;4920467;29;20032;-71
2022/01/01 01:01:11;;;;;;;61.60;23.00;;;9.50;99.90;;;;;;4920338;29;20028;-70
2022/01/01 01:03:38;;;;;;;65.05;21.23;;;9.50;99.90;;;;;;4920615;29;20504;-71
2022/01/01 01:06:04;;;;;;;60.72;22.88;;;9.50;99.90;;;;;;4920180;29;20052;-70
2022/01/01 01:08:31;;;;;;;59.42;21.85;;;9.50;99.90;;;;;;4920520;29;20099;-70
2022/01/01 01:10:59;;;;;;;62.42;20.73;;;9.50;99.90;;;;;;4920259;29;20545;-70
2022/01/01 01:13:29;;;;;;;67.65;21.83;;;9.40;99.90;;;;;;4920372;29;20486;-70
2022/01/01 01:15:55;;;;;;;55.53;21.58;;;9.40;99.90;;;;;;4920372;29;20036;-70
2022/01/01 01:18:22;;;;;;;60.17;20.42;;;9.30;99.90;;;;;;4920057;29;20375;-68
2022/01/01 01:20:49;;;;;;;60.45;18.38;;;9.30;99.90;;;;;;4921947;29;20032;-64
2022/01/01 01:23:15;;;;;;;52.80;18.35;;;9.20;99.90;;;;;;4920581;29;20032;-68
2022/01/01 01:25:42;;;;;;;56.70;19.35;;;9.10;99.90;;;;;;4919873;29;20032;-67
2022/01/01 01:28:11;;;;;;;57.35;17.05;;;9.10;99.90;;;;;;4919966;29;20092;-66
2022/01/01 01:30:39;;;;;;;53.03;18.17;;;9.10;99.90;;;;;;4919202;29;20043;-66
2022/01/01 01:33:07;;;;;;;52.80;17.48;;;9.10;99.90;;;;;;4919386;29;20048;-66
2022/01/01 01:35:35;;;;;;;58.78;17.77;;;9.10;99.90;;;;;;4919827;29;20030;-66
2022/01/01 01:38:02;;;;;;;55.63;16.88;;;9.20;99.90;;;;;;4919731;29;20028;-66
2022/01/01 01:40:30;;;;;;;46.95;16.65;;;9.20;99.90;;;;;;4919569;29;20028;-66
2022/01/01 01:43:00;;;;;;;43.40;16.48;;;9.20;99.90;;;;;;4919644;29;20039;-66
2022/01/01 01:45:28;;;;;;;47.67;16.65;;;9.20;99.90;;;;;;4919579;29;20031;-66
2022/01/01 01:47:55;;;;;;;48.08;16.38;;;9.20;99.90;;;;;;4919543;29;20036;-60
2022/01/01 01:50:22;;;;;;;57.90;17.98;;;9.20;99.90;;;;;;4919540;29;20024;-66
2022/01/01 01:52:59;;;;;;;46.05;18.20;;;9.10;99.90;;;;;;4919423;29;20032;-67
2022/01/01 01:55:29;;;;;;;47.10;16.90;;;9.10;99.90;;;;;;4920197;29;20055;-67
2022/01/01 01:58:04;;;;;;;54.63;17.15;;;9.10;99.90;;;;;;4919402;29;20039;-67
2022/01/01 02:03:09;;;;;;;60.65;18.95;;;9.10;99.90;;;;;;4902319;29;20039;-67
2022/01/01 02:05:38;;;;;;;44.45;16.88;;;9.10;99.90;;;;;;4919329;29;20052;-67
2022/01/01 02:08:11;;;;;;;49.58;18.75;;;9.10;99.90;;;;;;4919149;29;20028;-67
2022/01/01 02:10:40;;;;;;;67.43;18.90;;;9.10;99.90;;;;;;4919153;29;20032;-66
2022/01/01 02:13:22;;;;;;;69.47;20.42;;;9.10;99.90;;;;;;4919024;29;20072;-66
2022/01/01 02:18:22;;;;;;;70.68;20.38;;;9.00;99.90;;;;;;4919307;29;20082;-67
2022/01/01 02:20:49;;;;;;;65.55;20.15;;;9.00;99.90;;;;;;4902061;29;20035;-66
2022/01/01 02:23:22;;;;;;;66.57;20.63;;;9.00;99.90;;;;;;4918857;29;20490;-66
2022/01/01 02:25:51;;;;;;;110.15;31.58;;;9.00;99.90;;;;;;4918855;29;20123;-66
2022/01/01 02:28:19;;;;;;;133.65;34.58;;;9.00;99.90;;;;;;4918775;29;20036;-67
2022/01/01 02:30:50;;;;;;;132.90;39.63;;;9.00;99.90;;;;;;4919136;29;20020;-67
2022/01/01 02:33:18;;;;;;;99.88;31.50;;;9.00;99.90;;;;;;4918912;29;20048;-65
2022/01/01 02:35:44;;;;;;;91.47;27.75;;;8.90;99.90;;;;;;4918866;29;20385;-66
2022/01/01 02:38:12;;;;;;;95.53;28.05;;;8.80;99.90;;;;;;4918672;29;20116;-67
2022/01/01 02:40:39;;;;;;;81.40;24.55;;;8.80;99.90;;;;;;4918624;29;20028;-66
2022/01/01 02:43:09;;;;;;;85.38;24.45;;;8.90;99.90;;;;;;4918694;29;20056;-66
2022/01/01 02:45:36;;;;;;;78.10;22.33;;;8.90;99.90;;;;;;4918632;29;20035;-67
2022/01/01 02:48:06;;;;;;;72.15;22.38;;;8.90;99.90;;;;;;4918767;29;20036;-66
2022/01/01 02:50:32;;;;;;;71.43;24.17;;;8.80;99.90;;;;;;4901468;29;20035;-67
2022/01/01 02:52:59;;;;;;;71.97;22.73;;;8.80;99.90;;;;;;4918387;29;20046;-66
2022/01/01 02:55:25;;;;;;;69.28;20.48;;;8.80;99.90;;;;;;4918289;29;20024;-67
2022/01/01 02:57:52;;;;;;;63.22;22.67;;;8.90;99.90;;;;;;4918161;29;20046;-67
2022/01/01 03:00:22;;;;;;;76.60;20.88;;;8.80;99.90;;;;;;4918301;29;20051;-66
2022/01/01 03:02:49;;;;;;;70.35;20.85;;;8.70;99.90;;;;;;4918267;29;20040;-67
